Time;durP1;ratioP1;P1;durP2;ratioP2;P2;SDS_P1;SDS_P2;PMS_P1;PMS_P2;Temp;Humidity;BMP_temperature;BMP_pressure;BME280_temperature;BME280_humidity;BME280_pressure;Samples;Min_cycle;Max_cycle;Signal;HPM_P1;HPM_P2
2023/02/14 00:03:30;;;;;;;;;;;5.10;99.90;;;;;;8369353;28;20295;-71
2023/02/14 00:07:31;;;;;;;;;;;5.00;99.90;;;;;;8397228;28;19959;-70
2023/02/14 00:11:33;;;;;;;;;;;5.00;99.90;;;;;;8393585;28;19979;-70
2023/02/14 00:15:34;;;;;;;;;;;5.00;99.90;;;;;;8387209;28;19924;-70
2023/02/14 00:19:36;;;;;;;;;;;4.90;99.90;;;;;;8394259;28;19932;-70
2023/02/14 00:23:38;;;;;;;;;;;4.90;99.90;;;;;;8371843;28;19999;-70
2023/02/14 00:27:40;;;;;;;;;;;4.80;99.90;;;;;;8397408;28;19928;-71
2023/02/14 00:31:42;;;;;;;;;;;4.70;99.90;;;;;;8389085;28;20409;-70
2023/02/14 00:35:44;;;;;;;;;;;4.70;99.90;;;;;;8393005;28;19928;-71
2023/02/14 00:39:45;;;;;;;;;;;4.60;99.90;;;;;;8388755;28;20269;-71
2023/02/14 00:43:48;;;;;;;;;;;4.60;99.90;;;;;;8392087;28;20292;-71
2023/02/14 00:47:49;;;;;;;;;;;4.50;99.90;;;;;;8387120;28;19928;-70
2023/02/14 00:51:51;;;;;;;;;;;4.40;99.90;;;;;;8399973;28;19924;-71
2023/02/14 00:55:52;;;;;;;;;;;4.30;99.90;;;;;;8399494;28;20022;-73
2023/02/14 00:59:54;;;;;;;;;;;4.30;99.90;;;;;;8388243;28;19978;-72
2023/02/14 01:03:57;;;;;;;;;;;4.20;99.90;;;;;;8373525;28;19931;-72
2023/02/14 01:07:59;;;;;;;;;;;4.20;99.90;;;;;;8391402;28;19975;-72
2023/02/14 01:12:01;;;;;;;;;;;4.20;99.90;;;;;;8376024;28;19972;-72
2023/02/14 01:16:10;;;;;;;;;;;4.20;99.90;;;;;;8394187;28;20261;-72
2023/02/14 01:20:13;;;;;;;;;;;4.10;99.90;;;;;;8375606;28;19929;-72
2023/02/14 01:24:15;;;;;;;;;;;4.10;99.90;;;;;;8394886;28;20281;-72
2023/02/14 01:28:16;;;;;;;;;;;4.10;99.90;;;;;;8385232;28;19931;-72
2023/02/14 01:32:18;;;;;;;;;;;4.10;99.90;;;;;;8393846;28;19924;-72
2023/02/14 01:36:22;;;;;;;;;;;4.00;99.90;;;;;;8394066;28;19925;-72
2023/02/14 01:40:23;;;;;;;;;;;4.00;99.90;;;;;;8392087;28;19946;-73
2023/02/14 01:44:25;;;;;;;;;;;3.90;99.90;;;;;;8394842;28;19947;-73
2023/02/14 01:48:27;;;;;;;;;;;3.90;99.90;;;;;;8396595;28;20365;-73
2023/02/14 01:52:34;;;;;;;;;;;3.90;99.90;;;;;;8391740;28;20020;-72
2023/02/14 01:56:39;;;;;;;;;;;3.80;99.90;;;;;;8401348;28;20311;-72
2023/02/14 02:00:56;;;;;;;;;;;3.70;99.90;;;;;;8392460;28;19946;-72
2023/02/14 02:04:58;;;;;;;;;;;3.70;99.90;;;;;;8394965;28;19928;-72
2023/02/14 02:09:05;;;;;;;;;;;3.60;99.90;;;;;;8394354;28;19993;-72
2023/02/14 02:13:07;;;;;;;;;;;3.60;99.90;;;;;;8394177;28;19924;-72
2023/02/14 02:17:12;;;;;;;;;;;3.50;99.90;;;;;;8379142;28;19928;-72
2023/02/14 02:21:36;;;;;;;;;;;3.50;99.90;;;;;;8379017;28;19935;-73
2023/02/14 02:25:40;;;;;;;;;;;3.40;99.90;;;;;;8390315;28;20286;-72
2023/02/14 02:29:54;;;;;;;;;;;3.40;99.90;;;;;;8396365;28;19924;-72
2023/02/14 02:34:21;;;;;;;;;;;3.40;99.90;;;;;;8390768;28;20272;-73
2023/02/14 02:38:49;;;;;;;;;;;3.30;99.90;;;;;;8375981;28;19929;-73
2023/02/14 02:43:09;;;;;;;;;;;3.30;99.90;;;;;;8335900;28;20011;-72
2023/02/14 02:47:20;;;;;;;;;;;3.20;99.90;;;;;;8392867;28;20368;-72
2023/02/14 03:00:23;;;;;;;;;;;3.10;99.90;;;;;;8394038;28;19983;-73
2023/02/14 03:08:46;;;;;;;;;;;3.10;99.90;;;;;;8391736;28;19929;-72
2023/02/14 03:12:53;;;;;;;;;;;3.10;99.90;;;;;;8397674;28;19924;-72
2023/02/14 03:17:04;;;;;;;;;;;3.00;99.90;;;;;;8392209;28;19924;-72
2023/02/14 03:21:09;;;;;;;;;;;3.00;99.90;;;;;;8390141;28;19925;-73
2023/02/14 03:25:18;;;;;;;;;;;3.00;99.90;;;;;;8392612;28;19925;-72
2023/02/14 03:29:20;;;;;;;;;;;3.00;99.90;;;;;;8372497;28;19964;-72
2023/02/14 03:33:27;;;;;;;;;;;3.00;99.90;;;;;;8397511;28;19924;-72
2023/02/14 03:37:48;;;;;;;;;;;3.00;99.90;;;;;;8402901;28;19924;-72
2023/02/14 03:41:52;;;;;;;;;;;3.00;99.90;;;;;;8393774;28;19928;-72
2023/02/14 03:45:57;;;;;;;;;;;2.90;99.90;;;;;;8396469;28;19936;-72
2023/02/14 03:50:01;;;;;;;;;;;2.90;99.90;;;;;;8391000;28;19925;-72
2023/02/14 03:54:06;;;;;;;;;;;2.90;99.90;;;;;;8391403;28;20012;-72
2023/02/14 03:58:13;;;;;;;;;;;2.90;99.90;;;;;;8404497;28;19924;-72
2023/02/14 04:02:14;;;;;;;;;;;2.90;99.90;;;;;;8390222;28;20303;-72
2023/02/14 04:06:17;;;;;;;;;;;3.00;99.90;;;;;;8392564;28;19931;-72
2023/02/14 04:10:19;;;;;;;;;;;3.00;99.90;;;;;;8363866;28;19925;-72
2023/02/14 04:14:20;;;;;;;;;;;3.00;99.90;;;;;;8375693;28;19943;-72
2023/02/14 04:22:45;;;;;;;;;;;3.10;99.90;;;;;;8396903;28;19961;-73
2023/02/14 04:31:07;;;;;;;;;;;3.10;99.90;;;;;;8391782;28;19931;-72
2023/02/14 04:35:08;;;;;;;;;;;3.10;99.90;;;;;;8398809;28;19948;-73
2023/02/14 04:39:10;;;;;;;;;;;3.10;99.90;;;;;;8366972;28;19933;-73
2023/02/14 04:43:12;;;;;;;;;;;3.10;99.90;;;;;;8388056;28;20314;-72
2023/02/14 04:47:13;;;;;;;;;;;3.20;99.90;;;;;;8374586;28;19976;-73
2023/02/14 04:51:15;;;;;;;;;;;3.20;99.90;;;;;;8370792;28;19931;-73
2023/02/14 04:55:17;;;;;;;;;;;3.20;99.90;;;;;;8393336;28;19974;-72
2023/02/14 04:59:19;;;;;;;;;;;3.30;99.90;;;;;;8375967;28;19932;-72
2023/02/14 05:03:20;;;;;;;;;;;3.30;99.90;;;;;;8387868;28;19939;-72
2023/02/14 05:07:22;;;;;;;;;;;3.30;99.90;;;;;;8391195;28;20375;-72
2023/02/14 05:11:24;;;;;;;;;;;3.30;99.90;;;;;;8392642;28;19938;-72
2023/02/14 05:15:25;;;;;;;;;;;3.30;99.90;;;;;;8400796;28;19928;-72
2023/02/14 05:19:27;;;;;;;;;;;3.30;99.90;;;;;;8396023;28;19959;-72
2023/02/14 05:23:28;;;;;;;;;;;3.40;99.90;;;;;;8376039;28;20302;-73
2023/02/14 05:27:30;;;;;;;;;;;3.40;99.90;;;;;;8376451;28;19964;-72
2023/02/14 05:31:32;;;;;;;;;;;3.50;99.90;;;;;;8390273;28;19976;-73
2023/02/14 05:35:33;;;;;;;;;;;3.40;99.90;;;;;;8381765;28;19930;-72
2023/02/14 05:39:35;;;;;;;;;;;3.40;99.90;;;;;;8393737;28;19939;-72
2023/02/14 05:43:37;;;;;;;;;;;3.40;99.90;;;;;;8388178;28;19932;-73
2023/02/14 05:47:38;;;;;;;;;;;3.40;99.90;;;;;;8381891;28;19974;-73
2023/02/14 05:51:40;;;;;;;;;;;3.40;99.90;;;;;;8393923;28;19929;-72
2023/02/14 05:55:42;;;;;;;;;;;3.30;99.90;;;;;;8398132;28;19938;-73
2023/02/14 05:59:43;;;;;;;;;;;3.20;99.90;;;;;;8393871;28;19924;-73
2023/02/14 06:03:45;;;;;;;;;;;3.20;99.90;;;;;;8400304;28;19928;-72
2023/02/14 06:17:54;;;;;;;;;;;3.00;99.90;;;;;;8385580;28;19935;-72
2023/02/14 06:21:56;;;;;;;;;;;3.10;99.90;;;;;;8355997;28;19964;-73
2023/02/14 06:25:57;;;;;;;;;;;3.00;99.90;;;;;;8388821;28;19925;-72
2023/02/14 06:29:59;;;;;;;;;;;2.90;99.90;;;;;;8363157;28;19931;-73
2023/02/14 06:34:01;;;;;;;;;;;2.90;99.90;;;;;;8354921;28;19924;-72
2023/02/14 06:38:02;;;;;;;;;;;2.80;99.90;;;;;;8348993;28;19929;-72
2023/02/14 06:42:04;;;;;;;;;;;2.80;99.90;;;;;;8344770;28;19939;-72
2023/02/14 06:46:06;;;;;;;;;;;2.80;99.90;;;;;;8360337;28;20372;-72
2023/02/14 06:50:10;;;;;;;;;;;2.80;99.90;;;;;;8383839;28;19940;-72
2023/02/14 06:54:12;;;;;;;;;;;2.70;99.90;;;;;;8346853;28;20365;-72
2023/02/14 06:58:13;;;;;;;;;;;2.70;99.90;;;;;;8357006;28;20023;-72
2023/02/14 07:02:15;;;;;;;;;;;2.70;99.90;;;;;;8348041;28;19924;-72
2023/02/14 07:06:17;;;;;;;;;;;2.70;99.90;;;;;;8358424;28;19935;-72
2023/02/14 07:10:18;;;;;;;;;;;2.70;99.90;;;;;;8351069;28;20004;-72
2023/02/14 07:14:20;;;;;;;;;;;2.70;99.90;;;;;;8359917;28;19929;-72
2023/02/14 07:18:22;;;;;;;;;;;2.70;99.90;;;;;;8355726;28;20360;-72
2023/02/14 07:22:24;;;;;;;;;;;2.70;99.90;;;;;;8390644;28;19932;-73
2023/02/14 07:26:25;;;;;;;;;;;2.80;99.90;;;;;;8385592;28;19928;-72
2023/02/14 07:30:27;;;;;;;;;;;2.80;99.90;;;;;;8390681;28;19924;-73
2023/02/14 07:34:29;;;;;;;;;;;2.90;99.90;;;;;;8390780;28;19970;-72
2023/02/14 07:38:30;;;;;;;;;;;2.90;99.90;;;;;;8395368;28;19928;-73
2023/02/14 07:42:32;;;;;;;;;;;2.90;99.90;;;;;;8375042;28;19995;-72
2023/02/14 07:46:33;;;;;;;;;;;2.90;99.90;;;;;;8398112;28;19967;-73
2023/02/14 07:50:35;;;;;;;;;;;3.00;99.90;;;;;;8399097;28;19936;-72
2023/02/14 07:54:37;;;;;;;;;;;3.00;99.90;;;;;;8389565;28;20398;-73
2023/02/14 07:58:39;;;;;;;;;;;3.10;99.90;;;;;;8397723;28;20019;-72
2023/02/14 08:02:40;;;;;;;;;;;3.20;99.90;;;;;;8404679;28;20046;-73
2023/02/14 08:06:42;;;;;;;;;;;3.20;99.90;;;;;;8402418;28;20334;-73
2023/02/14 08:10:44;;;;;;;;;;;3.30;99.90;;;;;;8394646;28;19935;-73
2023/02/14 08:14:45;;;;;;;;;;;3.30;99.90;;;;;;8392031;28;19931;-72
2023/02/14 08:18:47;;;;;;;;;;;3.40;99.90;;;;;;8375391;28;19925;-72
2023/02/14 08:22:49;;;;;;;;;;;3.50;99.90;;;;;;8371139;28;19924;-73
2023/02/14 08:26:51;;;;;;;;;;;3.60;99.90;;;;;;8392798;28;20018;-73
2023/02/14 08:30:52;;;;;;;;;;;3.70;99.90;;;;;;8392366;28;20403;-72
2023/02/14 08:34:54;;;;;;;;;;;3.80;99.90;;;;;;8406579;28;20016;-72
2023/02/14 08:38:56;;;;;;;;;;;3.90;99.90;;;;;;8396040;28;19928;-73
2023/02/14 08:42:58;;;;;;;;;;;4.00;99.90;;;;;;8385722;28;20031;-73
2023/02/14 08:46:59;;;;;;;;;;;4.10;99.90;;;;;;8388403;28;19959;-73
2023/02/14 08:51:05;;;;;;;;;;;4.20;99.90;;;;;;8394150;28;19969;-72
2023/02/14 08:55:07;;;;;;;;;;;4.30;99.90;;;;;;8392292;28;19925;-73
2023/02/14 08:59:08;;;;;;;;;;;4.40;99.90;;;;;;8389983;28;19932;-73
2023/02/14 09:03:10;;;;;;;;;;;4.50;99.90;;;;;;8388264;28;20297;-72
2023/02/14 09:07:12;;;;;;;;;;;4.60;99.90;;;;;;8397528;28;19971;-73
2023/02/14 09:11:17;;;;;;;;;;;4.70;99.90;;;;;;8395861;28;19928;-73
2023/02/14 09:15:19;;;;;;;;;;;4.90;99.90;;;;;;8397472;28;20296;-73
2023/02/14 09:19:20;;;;;;;;;;;5.10;99.90;;;;;;8395595;28;19928;-73
2023/02/14 09:23:22;;;;;;;;;;;5.30;99.90;;;;;;8399333;28;19924;-73
2023/02/14 09:27:23;;;;;;;;;;;5.50;99.90;;;;;;8386025;28;19947;-72
2023/02/14 09:31:25;;;;;;;;;;;5.70;99.90;;;;;;8394912;28;20292;-73
2023/02/14 09:39:47;;;;;;;;;;;6.20;99.90;;;;;;8398859;28;19924;-71
2023/02/14 09:44:01;;;;;;;;;;;6.50;99.90;;;;;;8383956;28;19938;-71
2023/02/14 09:48:22;;;;;;;;;;;6.90;99.90;;;;;;8387996;28;19931;-70
2023/02/14 09:52:25;;;;;;;;;;;7.40;99.90;;;;;;8397130;28;19936;-71
2023/02/14 09:56:56;;;;;;;;;;;8.00;99.90;;;;;;8407241;28;19931;-70
2023/02/14 10:01:02;;;;;;;;;;;8.60;99.90;;;;;;8342223;28;19932;-71
2023/02/14 10:05:07;;;;;;;;;;;9.10;99.90;;;;;;8375582;28;19971;-71
2023/02/14 10:09:27;;;;;;;;;;;9.50;99.90;;;;;;8397796;28;19935;-71
2023/02/14 10:13:35;;;;;;;;;;;9.60;99.90;;;;;;8392986;28;20031;-71
2023/02/14 10:17:37;;;;;;;;;;;9.70;99.90;;;;;;8394905;28;19931;-71
2023/02/14 10:21:43;;;;;;;;;;;9.80;99.90;;;;;;8389347;28;20317;-70
2023/02/14 10:25:52;;;;;;;;;;;9.80;99.90;;;;;;8417445;28;19931;-71
2023/02/14 10:29:54;;;;;;;;;;;10.10;99.90;;;;;;8409788;28;19925;-71
2023/02/14 10:34:01;;;;;;;;;;;10.40;99.90;;;;;;8387014;28;20011;-70
2023/02/14 10:38:21;;;;;;;;;;;11.00;99.90;;;;;;8398641;28;19928;-70
2023/02/14 10:42:44;;;;;;;;;;;11.50;99.90;;;;;;8390185;28;20422;-71
2023/02/14 10:47:03;;;;;;;;;;;12.00;99.90;;;;;;8393428;28;19925;-70
2023/02/14 10:51:32;;;;;;;;;;;12.40;99.90;;;;;;8403887;28;19971;-70
2023/02/14 10:55:37;;;;;;;;;;;13.00;99.90;;;;;;8380588;28;19924;-70
2023/02/14 10:59:42;;;;;;;;;;;13.50;99.90;;;;;;8390651;28;19933;-71
2023/02/14 11:04:05;;;;;;;;;;;14.00;99.90;;;;;;8390573;28;20027;-70
2023/02/14 11:08:13;;;;;;;;;;;14.50;99.90;;;;;;8399100;28;19925;-71
2023/02/14 11:12:31;;;;;;;;;;;15.00;99.90;;;;;;8374148;28;19925;-70
2023/02/14 11:16:34;;;;;;;;;;;15.50;99.90;;;;;;8391037;28;19929;-71
2023/02/14 11:20:36;;;;;;;;;;;16.00;99.90;;;;;;8386301;28;19932;-71
2023/02/14 11:24:40;;;;;;;;;;;16.40;99.90;;;;;;8384635;28;20178;-71
2023/02/14 11:28:47;;;;;;;;;;;16.70;99.90;;;;;;8394232;28;19931;-71
2023/02/14 11:32:54;;;;;;;;;;;16.90;99.90;;;;;;8394130;28;19964;-71
2023/02/14 11:36:56;;;;;;;;;;;17.10;99.90;;;;;;8398809;28;19982;-71
2023/02/14 11:40:58;;;;;;;;;;;17.30;99.90;;;;;;8373085;28;19936;-70
2023/02/14 11:45:01;;;;;;;;;;;17.60;99.90;;;;;;8373911;28;19935;-71
2023/02/14 11:49:05;;;;;;;;;;;17.60;99.90;;;;;;8374615;28;19925;-70
2023/02/14 11:53:10;;;;;;;;;;;17.70;99.90;;;;;;8361261;28;20020;-71
2023/02/14 11:57:30;;;;;;;;;;;17.90;99.90;;;;;;8360230;28;20031;-71
2023/02/14 12:01:35;;;;;;;;;;;18.10;99.90;;;;;;8373153;28;19979;-71
2023/02/14 12:05:44;;;;;;;;;;;18.60;99.90;;;;;;8372389;28;19925;-71
2023/02/14 12:09:46;;;;;;;;;;;19.20;99.90;;;;;;8371532;28;19924;-71
2023/02/14 12:13:52;;;;;;;;;;;19.50;99.90;;;;;;8359540;28;20406;-70
2023/02/14 12:18:13;;;;;;;;;;;19.60;99.90;;;;;;8369487;28;20368;-70
2023/02/14 12:22:17;;;;;;;;;;;19.70;99.90;;;;;;8357091;28;20015;-71
2023/02/14 12:26:20;;;;;;;;;;;19.60;99.90;;;;;;8369503;28;19924;-70
2023/02/14 12:30:23;;;;;;;;;;;19.60;99.90;;;;;;8366195;28;20020;-71
2023/02/14 12:34:25;;;;;;;;;;;19.20;99.90;;;;;;8361340;28;20296;-71
2023/02/14 12:38:45;;;;;;;;;;;18.80;99.90;;;;;;8369009;28;19924;-71
2023/02/14 12:42:59;;;;;;;;;;;18.80;99.90;;;;;;8371251;28;19968;-71
2023/02/14 12:47:01;;;;;;;;;;;19.20;99.90;;;;;;8371372;28;20673;-71
2023/02/14 12:51:08;;;;;;;;;;;19.80;99.90;;;;;;8373540;28;20022;-70
2023/02/14 12:55:29;;;;;;;;;;;20.10;99.90;;;;;;8367138;28;19931;-71
2023/02/14 12:59:39;;;;;;;;;;;20.10;99.90;;;;;;8361021;28;19928;-71
2023/02/14 13:03:56;;;;;;;;;;;20.00;99.90;;;;;;8341106;28;19929;-71
2023/02/14 13:08:10;;;;;;;;;;;20.20;99.90;;;;;;8358987;28;20384;-71
2023/02/14 13:12:44;;;;;;;;;;;19.90;99.90;;;;;;8354522;28;19931;-71
2023/02/14 13:16:49;;;;;;;;;;;19.40;99.90;;;;;;8310298;28;19925;-71
2023/02/14 13:20:53;;;;;;;;;;;18.90;99.90;;;;;;8354076;28;19925;-71
2023/02/14 13:25:12;;;;;;;;;;;18.10;99.90;;;;;;8336520;28;19929;-71
2023/02/14 13:29:18;;;;;;;;;;;17.60;99.90;;;;;;8362416;28;20442;-71
2023/02/14 13:33:25;;;;;;;;;;;17.10;99.90;;;;;;8363141;28;19925;-71
2023/02/14 13:37:26;;;;;;;;;;;16.80;99.90;;;;;;8381094;28;19925;-71
2023/02/14 13:41:28;;;;;;;;;;;16.80;99.90;;;;;;8377255;28;20403;-70
2023/02/14 13:45:31;;;;;;;;;;;16.80;99.90;;;;;;8381000;28;19936;-71
2023/02/14 13:49:36;;;;;;;;;;;16.90;99.90;;;;;;8363620;28;19933;-71
2023/02/14 13:53:38;;;;;;;;;;;16.90;99.90;;;;;;8374446;28;19974;-70
2023/02/14 13:57:40;;;;;;;;;;;16.90;99.90;;;;;;8377088;28;19928;-71
2023/02/14 14:01:47;;;;;;;;;;;16.70;99.90;;;;;;8376787;28;20318;-71
2023/02/14 14:05:56;;;;;;;;;;;16.50;99.90;;;;;;8375402;28;19925;-70
2023/02/14 14:09:59;;;;;;;;;;;16.40;99.90;;;;;;8373543;28;19932;-71
2023/02/14 14:14:19;;;;;;;;;;;16.30;99.90;;;;;;8375194;28;19924;-70
2023/02/14 14:18:26;;;;;;;;;;;16.40;99.90;;;;;;8370126;28;19928;-71
2023/02/14 14:22:28;;;;;;;;;;;16.50;99.90;;;;;;8350118;28;19928;-70
2023/02/14 14:26:35;;;;;;;;;;;16.50;99.90;;;;;;8376646;28;19932;-71
2023/02/14 14:30:37;;;;;;;;;;;16.50;99.90;;;;;;8377633;28;19925;-71
2023/02/14 14:34:46;;;;;;;;;;;16.50;99.90;;;;;;8376339;28;19924;-71
2023/02/14 14:38:49;;;;;;;;;;;16.60;99.90;;;;;;8379127;28;20256;-71
2023/02/14 14:42:52;;;;;;;;;;;16.50;99.90;;;;;;8351892;28;19932;-70
2023/02/14 14:46:57;;;;;;;;;;;16.80;99.90;;;;;;8358930;28;20314;-71
2023/02/14 14:50:59;;;;;;;;;;;17.90;99.90;;;;;;8372555;28;19938;-71
2023/02/14 14:55:01;;;;;;;;;;;19.30;99.90;;;;;;8370738;28;20392;-71
2023/02/14 14:59:18;;;;;;;;;;;20.60;99.90;;;;;;8371418;28;19941;-71
2023/02/14 15:03:21;;;;;;;;;;;21.80;99.90;;;;;;8359283;28;20373;-71
2023/02/14 15:07:28;;;;;;;;;;;22.30;99.90;;;;;;8365657;28;19928;-70
2023/02/14 15:15:51;;;;;;;;;;;22.80;99.90;;;;;;8360735;28;19932;-70
2023/02/14 15:19:58;;;;;;;;;;;22.80;99.90;;;;;;8352529;28;19925;-71
2023/02/14 15:24:01;;;;;;;;;;;22.40;99.90;;;;;;8357624;28;20362;-70
2023/02/14 15:28:02;;;;;;;;;;;21.80;99.90;;;;;;8346620;28;19929;-71
2023/02/14 15:32:04;;;;;;;;;;;21.20;99.90;;;;;;8360263;28;19975;-71
2023/02/14 15:36:13;;;;;;;;;;;20.70;99.90;;;;;;8357577;28;19925;-71
2023/02/14 15:40:35;;;;;;;;;;;20.40;99.90;;;;;;8360962;28;19925;-70
2023/02/14 15:44:36;;;;;;;;;;;20.20;99.90;;;;;;8358542;28;19929;-71
2023/02/14 15:58:46;;;;;;;;;;;20.10;99.90;;;;;;8363250;28;19932;-70
2023/02/14 16:02:59;;;;;;;;;;;19.80;99.90;;;;;;8355531;28;19930;-71
2023/02/14 16:07:02;;;;;;;;;;;19.70;99.90;;;;;;8356692;28;19956;-71
2023/02/14 16:11:04;;;;;;;;;;;19.90;99.90;;;;;;8358029;28;19932;-71
2023/02/14 16:15:16;;;;;;;;;;;19.90;99.90;;;;;;8363320;28;19932;-71
2023/02/14 16:19:38;;;;;;;;;;;19.90;99.90;;;;;;8357119;28;19960;-71
2023/02/14 16:23:40;;;;;;;;;;;19.80;99.90;;;;;;8350887;28;19976;-71
2023/02/14 16:27:42;;;;;;;;;;;19.30;99.90;;;;;;8359902;28;19935;-71
2023/02/14 16:31:45;;;;;;;;;;;18.90;99.90;;;;;;8359713;28;19929;-70
2023/02/14 16:36:14;;;;;;;;;;;18.20;99.90;;;;;;8354875;28;19925;-71
2023/02/14 16:40:24;;;;;;;;;;;17.30;99.90;;;;;;8360475;28;24626;-71
2023/02/14 16:54:31;;;;;;;;;;;15.10;99.90;;;;;;8356131;28;19939;-70
2023/02/14 16:58:35;;;;;;;;;;;14.50;99.90;;;;;;8357033;28;19925;-70
2023/02/14 17:02:36;;;;;;;;;;;14.10;99.90;;;;;;8355018;28;20020;-70
2023/02/14 17:06:40;;;;;;;;;;;13.90;99.90;;;;;;8361550;28;20308;-70
2023/02/14 17:10:43;;;;;;;;;;;13.60;99.90;;;;;;8356895;28;19932;-70
2023/02/14 17:14:46;;;;;;;;;;;13.30;99.90;;;;;;8355852;28;19935;-71
2023/02/14 17:18:50;;;;;;;;;;;13.10;99.90;;;;;;8361163;28;19928;-70
2023/02/14 17:22:54;;;;;;;;;;;13.00;99.90;;;;;;8361183;28;20475;-70
2023/02/14 17:26:56;;;;;;;;;;;12.80;99.90;;;;;;8369200;28;19929;-70
2023/02/14 17:30:57;;;;;;;;;;;12.60;99.90;;;;;;8345903;28;20036;-70
2023/02/14 17:35:02;;;;;;;;;;;12.40;99.90;;;;;;8357167;28;20491;-70
2023/02/14 17:39:04;;;;;;;;;;;12.10;99.90;;;;;;8345989;28;19974;-70
2023/02/14 17:43:06;;;;;;;;;;;11.90;99.90;;;;;;8364223;28;19964;-70
2023/02/14 17:47:08;;;;;;;;;;;11.70;99.90;;;;;;8350276;28;19925;-70
2023/02/14 17:51:10;;;;;;;;;;;11.50;99.90;;;;;;8360608;28;20288;-70
2023/02/14 17:55:12;;;;;;;;;;;11.30;99.90;;;;;;8348176;28;20328;-70
2023/02/14 17:59:14;;;;;;;;;;;11.20;99.90;;;;;;8345248;28;19932;-70
2023/02/14 18:03:15;;;;;;;;;;;11.00;99.90;;;;;;8368730;28;19956;-70
2023/02/14 18:07:17;;;;;;;;;;;10.90;99.90;;;;;;8374668;28;19962;-70
2023/02/14 18:11:19;;;;;;;;;;;10.80;99.90;;;;;;8375584;28;20056;-70
2023/02/14 18:15:21;;;;;;;;;;;10.70;99.90;;;;;;8371425;28;20011;-69
2023/02/14 18:19:22;;;;;;;;;;;10.60;99.90;;;;;;8356260;28;20958;-70
2023/02/14 18:23:24;;;;;;;;;;;10.50;99.90;;;;;;8364166;28;19936;-70
2023/02/14 18:27:26;;;;;;;;;;;10.40;99.90;;;;;;8367818;28;20362;-70
2023/02/14 18:31:28;;;;;;;;;;;10.20;99.90;;;;;;8349728;28;20387;-70
2023/02/14 18:35:29;;;;;;;;;;;10.10;99.90;;;;;;8365434;28;19956;-70
2023/02/14 18:39:31;;;;;;;;;;;10.00;99.90;;;;;;8363763;28;19924;-70
2023/02/14 18:43:33;;;;;;;;;;;9.80;99.90;;;;;;8367085;28;20027;-69
2023/02/14 18:47:35;;;;;;;;;;;9.70;99.90;;;;;;8361387;28;19925;-70
2023/02/14 18:51:39;;;;;;;;;;;9.60;99.90;;;;;;8361662;28;19929;-70
2023/02/14 18:55:41;;;;;;;;;;;9.50;99.90;;;;;;8358751;28;20043;-70
2023/02/14 18:59:43;;;;;;;;;;;9.30;99.90;;;;;;8357880;28;19975;-70
2023/02/14 19:03:48;;;;;;;;;;;9.20;99.90;;;;;;8354343;28;20030;-70
2023/02/14 19:07:57;;;;;;;;;;;9.10;99.90;;;;;;8363369;28;19970;-70
2023/02/14 19:11:59;;;;;;;;;;;9.10;99.90;;;;;;8359333;28;19933;-70
2023/02/14 19:16:07;;;;;;;;;;;9.00;99.90;;;;;;8363272;28;19928;-70
2023/02/14 19:20:10;;;;;;;;;;;9.00;99.90;;;;;;8366488;28;19975;-70
2023/02/14 19:24:11;;;;;;;;;;;8.80;99.90;;;;;;8360004;28;20273;-70
2023/02/14 19:28:13;;;;;;;;;;;8.70;99.90;;;;;;8362143;28;19925;-70
2023/02/14 19:32:14;;;;;;;;;;;8.60;99.90;;;;;;8360981;28;20342;-70
2023/02/14 19:36:17;;;;;;;;;;;8.50;99.90;;;;;;8366440;28;20380;-70
2023/02/14 19:40:18;;;;;;;;;;;8.50;99.90;;;;;;8372408;28;19959;-70
2023/02/14 19:44:20;;;;;;;;;;;8.40;99.90;;;;;;8370870;28;19929;-69
2023/02/14 19:48:25;;;;;;;;;;;8.40;99.90;;;;;;8361239;28;19990;-70
2023/02/14 19:52:27;;;;;;;;;;;8.30;99.90;;;;;;8362293;28;20503;-70
2023/02/14 19:56:30;;;;;;;;;;;8.30;99.90;;;;;;8357589;28;19935;-70
2023/02/14 20:00:31;;;;;;;;;;;8.20;99.90;;;;;;8340471;28;20273;-70
2023/02/14 20:04:33;;;;;;;;;;;8.10;99.90;;;;;;8345589;28;20031;-70
2023/02/14 20:08:34;;;;;;;;;;;8.00;99.90;;;;;;8362298;28;19964;-70
2023/02/14 20:12:37;;;;;;;;;;;7.90;99.90;;;;;;8361913;28;20011;-70
2023/02/14 20:16:38;;;;;;;;;;;7.80;99.90;;;;;;8364870;28;19929;-70
2023/02/14 20:21:02;;;;;;;;;;;7.70;99.90;;;;;;8361468;28;20387;-70
2023/02/14 20:25:05;;;;;;;;;;;7.70;99.90;;;;;;8360789;28;19925;-70
2023/02/14 20:29:08;;;;;;;;;;;7.60;99.90;;;;;;8356881;28;19924;-70
2023/02/14 20:33:10;;;;;;;;;;;7.50;99.90;;;;;;8344023;28;19967;-70
2023/02/14 20:37:12;;;;;;;;;;;7.40;99.90;;;;;;8363088;28;19931;-70
2023/02/14 20:41:16;;;;;;;;;;;7.40;99.90;;;;;;8341037;28;19928;-70
2023/02/14 20:45:18;;;;;;;;;;;7.30;99.90;;;;;;8366023;28;20392;-70
2023/02/14 20:49:20;;;;;;;;;;;7.20;99.90;;;;;;8364135;28;19940;-71
2023/02/14 20:53:22;;;;;;;;;;;7.20;99.90;;;;;;8361106;28;19932;-70
2023/02/14 20:57:24;;;;;;;;;;;7.10;99.90;;;;;;8359624;28;19929;-70
2023/02/14 21:01:26;;;;;;;;;;;7.10;99.90;;;;;;8360620;28;20283;-70
2023/02/14 21:05:28;;;;;;;;;;;6.90;99.90;;;;;;8354307;28;19928;-70
2023/02/14 21:09:31;;;;;;;;;;;6.90;99.90;;;;;;8361847;28;19967;-70
2023/02/14 21:13:33;;;;;;;;;;;6.90;99.90;;;;;;8365538;28;19924;-70
2023/02/14 21:17:36;;;;;;;;;;;6.80;99.90;;;;;;8347151;28;19928;-70
2023/02/14 21:21:37;;;;;;;;;;;6.70;99.90;;;;;;8372402;28;19947;-70
2023/02/14 21:25:39;;;;;;;;;;;6.60;99.90;;;;;;8367088;28;19939;-69
2023/02/14 21:29:41;;;;;;;;;;;6.40;99.90;;;;;;8364869;28;19941;-70
2023/02/14 21:33:43;;;;;;;;;;;6.40;99.90;;;;;;8373222;28;19935;-70
2023/02/14 21:37:44;;;;;;;;;;;6.40;99.90;;;;;;8366400;28;20079;-70
2023/02/14 21:41:46;;;;;;;;;;;6.30;99.90;;;;;;8359260;28;19965;-70
2023/02/14 21:45:54;;;;;;;;;;;6.30;99.90;;;;;;8342655;28;19971;-71
2023/02/14 21:54:16;;;;;;;;;;;6.10;99.90;;;;;;8365072;28;19940;-70
2023/02/14 21:58:18;;;;;;;;;;;6.00;99.90;;;;;;8347649;28;19925;-73
2023/02/14 22:02:19;;;;;;;;;;;6.00;99.90;;;;;;8365053;28;20022;-72
2023/02/14 22:06:21;;;;;;;;;;;5.90;99.90;;;;;;8397246;28;19928;-72
2023/02/14 22:10:23;;;;;;;;;;;5.90;99.90;;;;;;8389722;28;20047;-72
2023/02/14 22:14:27;;;;;;;;;;;5.90;99.90;;;;;;8391543;28;19929;-73
2023/02/14 22:18:30;;;;;;;;;;;5.80;99.90;;;;;;8393029;28;19924;-72
2023/02/14 22:22:33;;;;;;;;;;;5.70;99.90;;;;;;8397658;28;20577;-73
2023/02/14 22:26:39;;;;;;;;;;;5.60;99.90;;;;;;8376556;28;19968;-73
2023/02/14 22:30:41;;;;;;;;;;;5.60;99.90;;;;;;8379948;28;19925;-72
2023/02/14 22:34:42;;;;;;;;;;;5.50;99.90;;;;;;8388322;28;19964;-72
2023/02/14 22:38:44;;;;;;;;;;;5.50;99.90;;;;;;8373416;28;19959;-72
2023/02/14 22:42:46;;;;;;;;;;;5.40;99.90;;;;;;8379209;28;19980;-72
2023/02/14 22:46:48;;;;;;;;;;;5.30;99.90;;;;;;8377001;28;19963;-73
2023/02/14 22:50:49;;;;;;;;;;;5.30;99.90;;;;;;8382343;28;19935;-72
2023/02/14 22:54:51;;;;;;;;;;;5.20;99.90;;;;;;8374759;28;20361;-72
2023/02/14 22:58:54;;;;;;;;;;;5.20;99.90;;;;;;8401888;28;19925;-72
2023/02/14 23:02:55;;;;;;;;;;;5.20;99.90;;;;;;8374281;28;19924;-73
2023/02/14 23:06:57;;;;;;;;;;;5.20;99.90;;;;;;8391952;28;19932;-72
2023/02/14 23:11:13;;;;;;;;;;;5.10;99.90;;;;;;8370033;28;20388;-73
2023/02/14 23:23:55;;;;;;;;;;;5.00;99.90;;;;;;8389514;28;19939;-72
2023/02/14 23:27:57;;;;;;;;;;;4.90;99.90;;;;;;8389615;28;20022;-72
2023/02/14 23:31:58;;;;;;;;;;;4.90;99.90;;;;;;8388932;28;20265;-73
2023/02/14 23:36:01;;;;;;;;;;;4.80;99.90;;;;;;8371140;28;19931;-72
2023/02/14 23:40:03;;;;;;;;;;;4.80;99.90;;;;;;8388098;28;20024;-73
2023/02/14 23:44:05;;;;;;;;;;;4.70;99.90;;;;;;8389305;28;19960;-73
2023/02/14 23:48:06;;;;;;;;;;;4.60;99.90;;;;;;8387989;28;20321;-72
2023/02/14 23:52:09;;;;;;;;;;;4.60;99.90;;;;;;8370321;28;19956;-72
2023/02/14 23:56:11;;;;;;;;;;;4.50;99.90;;;;;;8383919;28;19924;-72
